createdAt,value
2022-08-22T00:00:53.190Z,19.55
2022-08-22T00:02:43.674Z,20.77
2022-08-22T00:02:46.232Z,21.52
2022-08-22T00:02:47.978Z,22.66
2022-08-22T00:03:11.263Z,20.11
2022-08-22T00:06:09.749Z,19.49
2022-08-22T00:11:25.732Z,19.40
2022-08-22T00:16:39.508Z,19.34
2022-08-22T00:21:52.930Z,19.28
2022-08-22T00:27:02.178Z,19.24
2022-08-22T00:32:15.108Z,19.20
2022-08-22T00:37:25.134Z,19.17
2022-08-22T00:42:52.615Z,19.15
2022-08-22T00:48:11.064Z,19.17
2022-08-22T00:53:32.725Z,19.18
2022-08-22T00:59:22.874Z,19.15
2022-08-22T01:04:51.626Z,19.12
2022-08-22T01:10:05.074Z,19.07
2022-08-22T01:15:12.020Z,19.10
2022-08-22T01:20:53.359Z,19.12
2022-08-22T01:26:30.088Z,19.09
2022-08-22T01:32:10.935Z,19.06
2022-08-22T01:37:35.057Z,19.05
2022-08-22T01:43:04.781Z,19.03
2022-08-22T01:48:15.433Z,18.99
2022-08-22T01:53:28.149Z,19.00
2022-08-22T01:58:34.312Z,18.98
2022-08-22T02:03:44.444Z,18.98
2022-08-22T02:09:03.691Z,18.98
2022-08-22T02:14:18.135Z,18.95
2022-08-22T02:19:30.359Z,18.91
2022-08-22T02:24:50.612Z,18.88
2022-08-22T02:30:03.216Z,18.88
2022-08-22T02:35:18.000Z,18.87
2022-08-22T02:40:33.503Z,18.84
2022-08-22T02:45:41.731Z,18.82
2022-08-22T02:50:53.357Z,18.81
2022-08-22T02:56:04.259Z,18.78
2022-08-22T03:01:24.004Z,18.77
2022-08-22T03:06:35.628Z,18.72
2022-08-22T03:11:44.884Z,18.72
2022-08-22T03:16:56.287Z,18.70
2022-08-22T03:22:04.578Z,18.63
2022-08-22T03:27:12.845Z,18.58
2022-08-22T03:32:19.427Z,18.42
2022-08-22T03:37:29.639Z,18.37
2022-08-22T03:42:55.866Z,18.32
2022-08-22T03:48:21.276Z,18.26
2022-08-22T03:53:41.816Z,18.19
2022-08-22T03:59:26.302Z,18.18
2022-08-22T04:04:56.696Z,18.18
2022-08-22T04:10:49.770Z,18.22
2022-08-22T04:16:15.215Z,18.25
2022-08-22T04:21:40.426Z,18.27
2022-08-22T04:26:49.518Z,18.33
2022-08-22T04:32:01.805Z,18.37
2022-08-22T04:37:11.051Z,18.41
2022-08-22T04:42:34.862Z,18.37
2022-08-22T04:47:49.711Z,18.39
2022-08-22T04:53:10.274Z,18.40
2022-08-22T04:58:30.302Z,18.35
2022-08-22T05:03:44.716Z,18.37
2022-08-22T05:08:53.942Z,18.37
2022-08-22T05:14:01.728Z,18.38
2022-08-22T05:19:15.803Z,18.36
2022-08-22T05:24:28.095Z,18.38
2022-08-22T05:29:33.648Z,18.37
2022-08-22T05:34:42.706Z,18.41
2022-08-22T05:39:49.873Z,18.42
2022-08-22T05:44:55.188Z,18.44
2022-08-22T05:50:04.699Z,18.48
2022-08-22T05:55:22.655Z,18.45
2022-08-22T06:00:32.502Z,18.44
2022-08-22T06:05:43.771Z,18.37
2022-08-22T06:10:51.856Z,18.30
2022-08-22T06:16:04.095Z,18.26
2022-08-22T06:21:13.052Z,18.18
2022-08-22T06:26:20.787Z,18.20
2022-08-22T06:31:28.018Z,18.28
2022-08-22T06:36:36.232Z,18.29
2022-08-22T06:41:42.415Z,18.36
2022-08-22T06:46:53.433Z,18.33
2022-08-22T06:52:02.880Z,18.41
2022-08-22T06:57:13.252Z,18.39
2022-08-22T07:02:23.086Z,18.30
2022-08-22T07:07:28.859Z,18.34
2022-08-22T07:12:38.123Z,18.39
2022-08-22T07:17:50.631Z,18.45
2022-08-22T07:23:00.919Z,18.52
2022-08-22T07:28:16.301Z,18.63
2022-08-22T07:33:39.185Z,18.75
2022-08-22T07:38:48.939Z,18.84
2022-08-22T07:43:56.037Z,19.02
2022-08-22T07:49:09.618Z,19.34
2022-08-22T07:54:22.442Z,19.60
2022-08-22T07:59:34.231Z,19.98
2022-08-22T08:04:40.666Z,20.17
2022-08-22T08:09:51.051Z,20.26
2022-08-22T08:14:56.706Z,20.40
2022-08-22T08:20:07.547Z,20.59
2022-08-22T08:25:17.140Z,20.90
2022-08-22T08:30:23.420Z,21.33
2022-08-22T08:35:31.637Z,21.68
2022-08-22T08:41:14.920Z,22.03
2022-08-22T08:46:55.401Z,22.15
2022-08-22T08:52:26.904Z,22.31
2022-08-22T08:57:49.640Z,22.38
2022-08-22T09:03:00.648Z,22.51
2022-08-22T09:08:55.813Z,22.69
2022-08-22T09:14:19.603Z,22.87
2022-08-22T09:19:51.070Z,23.21
2022-08-22T09:25:17.161Z,23.33
2022-08-22T09:30:28.516Z,23.39
2022-08-22T09:35:41.200Z,23.61
2022-08-22T09:40:48.888Z,23.79
2022-08-22T09:46:06.499Z,24.28
2022-08-22T09:51:32.709Z,24.53
2022-08-22T09:56:40.354Z,25.18
2022-08-22T10:01:54.978Z,26.07
2022-08-22T10:07:12.091Z,25.73
2022-08-22T10:12:24.202Z,25.67
2022-08-22T10:17:36.549Z,25.97
2022-08-22T10:22:50.507Z,26.04
2022-08-22T10:28:10.520Z,26.31
2022-08-22T10:33:24.882Z,26.08
2022-08-22T10:38:44.224Z,26.25
2022-08-22T10:43:56.415Z,26.22
2022-08-22T10:49:14.328Z,26.29
2022-08-22T10:54:33.611Z,26.77
2022-08-22T10:59:44.936Z,26.99
2022-08-22T11:05:09.318Z,27.28
2022-08-22T11:10:23.259Z,27.32
2022-08-22T11:15:57.512Z,27.42
2022-08-22T11:21:08.577Z,27.54
2022-08-22T11:26:33.678Z,27.51
2022-08-22T11:31:55.928Z,27.82
2022-08-22T11:37:23.761Z,27.80
2022-08-22T11:42:34.731Z,28.17
2022-08-22T11:48:01.027Z,28.60
2022-08-22T11:53:20.822Z,28.97
2022-08-22T11:58:42.862Z,28.81
2022-08-22T12:04:00.715Z,29.15
2022-08-22T12:09:21.912Z,29.00
2022-08-22T12:14:35.413Z,29.05
2022-08-22T12:20:14.772Z,28.02
2022-08-22T12:25:29.425Z,27.27
2022-08-22T12:30:39.033Z,27.17
2022-08-22T12:35:54.595Z,27.16
2022-08-22T12:41:28.139Z,27.24
2022-08-22T12:46:50.165Z,27.12
2022-08-22T12:52:10.647Z,27.39
2022-08-22T12:57:27.499Z,27.50
2022-08-22T13:02:35.939Z,27.91
2022-08-22T13:07:42.499Z,28.29
2022-08-22T13:12:49.373Z,29.11
2022-08-22T13:17:54.137Z,28.96
2022-08-22T13:23:01.760Z,29.14
2022-08-22T13:28:13.355Z,29.79
2022-08-22T13:33:27.067Z,30.26
2022-08-22T13:38:39.323Z,30.08
2022-08-22T13:44:17.565Z,29.87
2022-08-22T13:49:33.721Z,29.14
2022-08-22T13:54:54.232Z,29.77
2022-08-22T14:00:09.292Z,29.90
2022-08-22T14:05:21.211Z,29.93
2022-08-22T14:10:28.846Z,30.34
2022-08-22T14:15:41.569Z,30.58
2022-08-22T14:20:49.764Z,30.35
2022-08-22T14:25:53.830Z,30.93
2022-08-22T14:31:04.099Z,31.38
2022-08-22T14:36:15.562Z,32.86
2022-08-22T14:41:55.765Z,33.38
2022-08-22T14:46:58.581Z,33.50
2022-08-22T14:52:07.411Z,32.71
2022-08-22T14:57:20.097Z,32.41
2022-08-22T15:02:30.703Z,32.02
2022-08-22T15:07:37.592Z,31.41
2022-08-22T15:12:48.307Z,30.66
2022-08-22T15:17:54.333Z,30.30
2022-08-22T15:23:03.095Z,30.07
2022-08-22T15:28:20.852Z,30.36
2022-08-22T15:33:29.393Z,30.91
2022-08-22T15:38:36.418Z,30.77
2022-08-22T15:43:47.968Z,30.17
2022-08-22T15:49:00.590Z,29.96
2022-08-22T15:54:24.993Z,29.75
2022-08-22T15:59:47.913Z,30.37
2022-08-22T16:05:23.680Z,30.64
2022-08-22T16:10:36.219Z,30.75
2022-08-22T16:16:01.140Z,30.72
2022-08-22T16:21:07.656Z,31.03
2022-08-22T16:26:15.232Z,31.00
2022-08-22T16:31:27.184Z,30.94
2022-08-22T16:36:45.882Z,31.03
2022-08-22T16:41:51.453Z,30.91
2022-08-22T16:47:07.719Z,30.74
2022-08-22T16:52:53.064Z,30.25
2022-08-22T16:58:07.234Z,29.99
2022-08-22T17:03:19.711Z,29.75
2022-08-22T17:08:40.367Z,29.32
2022-08-22T17:14:04.594Z,28.94
2022-08-22T17:19:21.880Z,28.68
2022-08-22T17:24:34.708Z,28.40
2022-08-22T17:29:52.079Z,28.21
2022-08-22T17:35:13.672Z,27.98
2022-08-22T17:40:32.627Z,27.74
2022-08-22T17:45:54.122Z,27.53
2022-08-22T17:51:02.542Z,27.36
2022-08-22T17:56:17.647Z,27.26
2022-08-22T18:01:43.798Z,27.07
2022-08-22T18:06:55.526Z,26.93
2022-08-22T18:12:06.085Z,26.75
2022-08-22T18:17:19.883Z,26.54
2022-08-22T18:22:28.683Z,26.35
2022-08-22T18:27:40.308Z,26.21
2022-08-22T18:32:53.705Z,25.99
2022-08-22T18:38:03.427Z,25.80
2022-08-22T18:43:37.254Z,25.71
2022-08-22T18:49:11.603Z,25.55
2022-08-22T18:54:38.386Z,25.47
2022-08-22T19:00:05.544Z,25.23
2022-08-22T19:05:40.267Z,25.15
2022-08-22T19:11:03.033Z,25.05
2022-08-22T19:16:31.778Z,24.85
2022-08-22T19:21:55.042Z,24.70
2022-08-22T19:27:24.208Z,24.67
2022-08-22T19:33:05.186Z,24.48
2022-08-22T19:38:10.565Z,24.31
2022-08-22T19:43:27.326Z,24.26
2022-08-22T19:48:44.716Z,24.10
2022-08-22T19:53:57.092Z,24.02
2022-08-22T19:59:12.560Z,23.93
2022-08-22T20:04:50.485Z,23.85
2022-08-22T20:10:05.411Z,23.84
2022-08-22T20:15:17.867Z,23.89
2022-08-22T20:20:58.288Z,23.92
2022-08-22T20:26:02.358Z,23.88
2022-08-22T20:31:10.822Z,23.89
2022-08-22T20:36:27.680Z,23.88
2022-08-22T20:41:36.705Z,23.84
2022-08-22T20:46:57.682Z,23.77
2022-08-22T20:52:05.836Z,23.63
2022-08-22T20:57:16.121Z,23.57
2022-08-22T21:02:22.585Z,23.53
2022-08-22T21:07:30.857Z,23.50
2022-08-22T21:12:34.601Z,23.45
2022-08-22T21:17:39.197Z,23.42
2022-08-22T21:22:44.800Z,23.39
2022-08-22T21:27:49.679Z,23.24
2022-08-22T21:32:56.464Z,23.14
2022-08-22T21:38:02.943Z,23.03
2022-08-22T21:43:09.427Z,22.90
2022-08-22T21:48:35.520Z,22.77
2022-08-22T21:53:40.589Z,22.59
2022-08-22T21:58:46.250Z,22.52
2022-08-22T22:03:50.033Z,22.42
2022-08-22T22:08:55.197Z,22.28
2022-08-22T22:13:59.306Z,22.21
2022-08-22T22:19:03.056Z,22.11
2022-08-22T22:24:08.408Z,22.01
2022-08-22T22:29:12.319Z,21.89
2022-08-22T22:34:16.286Z,21.77
2022-08-22T22:39:21.439Z,21.63
2022-08-22T22:44:26.150Z,21.52
2022-08-22T22:49:30.166Z,21.41
2022-08-22T22:54:35.256Z,21.32
2022-08-22T22:59:39.114Z,21.22
2022-08-22T23:04:46.206Z,21.12
2022-08-22T23:09:52.311Z,21.02
2022-08-22T23:14:57.383Z,20.91
2022-08-22T23:20:01.125Z,20.84
2022-08-22T23:25:06.786Z,20.78
2022-08-22T23:30:12.193Z,20.68
2022-08-22T23:35:16.066Z,20.61
2022-08-22T23:40:21.177Z,20.53
2022-08-22T23:45:24.945Z,20.44
2022-08-22T23:50:28.709Z,20.38
2022-08-22T23:55:33.760Z,20.35
